Time;durP1;ratioP1;P1;durP2;ratioP2;P2;SDS_P1;SDS_P2;PMS_P1;PMS_P2;Temp;Humidity;BMP_temperature;BMP_pressure;BME280_temperature;BME280_humidity;BME280_pressure;Samples;Min_cycle;Max_cycle;Signal;HPM_P1;HPM_P2
2023/08/29 00:02:30;;;;;;;6.60;4.93;;;16.40;99.80;;;;;;4881024;28;87950;-75
2023/08/29 00:04:56;;;;;;;8.80;4.88;;;16.40;99.90;;;;;;4867168;28;88736;-74
2023/08/29 00:07:21;;;;;;;4.35;3.78;;;16.30;99.90;;;;;;4876555;28;87765;-75
2023/08/29 00:09:47;;;;;;;6.65;3.83;;;16.30;99.90;;;;;;4866008;28;91163;-74
2023/08/29 00:12:13;;;;;;;6.78;4.40;;;16.30;99.80;;;;;;4861015;28;90588;-75
2023/08/29 00:14:39;;;;;;;7.53;4.32;;;16.30;99.60;;;;;;4860365;28;87598;-75
2023/08/29 00:17:08;;;;;;;6.50;4.47;;;16.30;99.70;;;;;;4862479;28;89436;-75
2023/08/29 00:19:33;;;;;;;5.55;4.93;;;16.30;99.70;;;;;;4858942;28;90582;-75
2023/08/29 00:21:59;;;;;;;6.35;4.63;;;16.30;99.70;;;;;;4880585;28;88308;-74
2023/08/29 00:24:26;;;;;;;5.47;4.88;;;16.30;99.70;;;;;;4880120;28;88034;-75
2023/08/29 00:26:51;;;;;;;8.75;5.13;;;16.20;99.70;;;;;;4881187;28;87664;-75
2023/08/29 00:29:20;;;;;;;10.15;4.57;;;16.20;99.70;;;;;;4878885;28;89610;-75
2023/08/29 00:31:45;;;;;;;4.90;3.75;;;16.20;99.70;;;;;;4880956;28;89287;-74
2023/08/29 00:34:11;;;;;;;4.55;4.00;;;16.10;99.70;;;;;;4881994;28;87451;-75
2023/08/29 00:36:40;;;;;;;7.72;4.45;;;16.10;99.50;;;;;;4880784;28;92466;-75
2023/08/29 00:39:06;;;;;;;6.47;4.18;;;16.10;99.60;;;;;;4879780;28;88466;-75
2023/08/29 00:41:32;;;;;;;4.32;3.92;;;16.10;99.70;;;;;;4882683;28;88049;-75
2023/08/29 00:44:00;;;;;;;5.20;4.30;;;16.10;99.70;;;;;;4884540;28;87653;-73
2023/08/29 00:46:30;;;;;;;6.95;4.88;;;16.10;99.90;;;;;;4884065;28;87454;-74
2023/08/29 00:49:03;;;;;;;10.48;5.05;;;16.10;99.80;;;;;;4885948;28;88286;-75
2023/08/29 00:51:32;;;;;;;5.10;4.60;;;16.10;99.80;;;;;;4885759;28;88757;-76
2023/08/29 00:53:58;;;;;;;9.85;4.15;;;16.00;99.80;;;;;;4865748;28;88455;-75
2023/08/29 00:56:24;;;;;;;7.85;4.25;;;16.00;99.80;;;;;;4866685;28;90540;-75
2023/08/29 00:58:50;;;;;;;6.85;4.65;;;16.00;99.80;;;;;;4883755;28;88770;-75
2023/08/29 01:01:17;;;;;;;6.05;4.82;;;16.00;99.90;;;;;;4884652;28;87713;-74
2023/08/29 01:03:43;;;;;;;6.45;3.97;;;15.90;99.90;;;;;;4884255;28;87644;-75
2023/08/29 01:06:10;;;;;;;6.82;5.00;;;15.90;99.90;;;;;;4883811;28;87501;-75
2023/08/29 01:08:39;;;;;;;4.43;3.55;;;15.90;99.90;;;;;;4883671;28;87749;-74
2023/08/29 01:11:28;;;;;;;5.97;4.07;;;15.90;99.80;;;;;;4866794;28;90509;-74
2023/08/29 01:14:46;;;;;;;5.35;3.40;;;15.90;99.70;;;;;;4866378;28;87088;-74
2023/08/29 01:17:30;;;;;;;4.68;3.60;;;15.80;99.50;;;;;;4855329;28;87953;-75
2023/08/29 01:19:56;;;;;;;;;;;15.80;99.30;;;;;;4880715;28;92753;-75
2023/08/29 01:22:40;;;;;;;5.07;3.65;;;15.80;99.30;;;;;;4884922;28;88855;-75
2023/08/29 01:25:47;;;;;;;3.47;2.97;;;15.70;99.20;;;;;;4885802;28;87432;-74
2023/08/29 01:28:16;;;;;;;6.47;4.07;;;15.70;99.30;;;;;;4851452;28;95028;-74
2023/08/29 01:30:43;;;;;;;4.00;3.60;;;15.60;99.20;;;;;;4886661;28;88284;-74
2023/08/29 01:33:09;;;;;;;4.20;3.65;;;15.60;99.10;;;;;;4884298;28;88478;-75
2023/08/29 01:35:45;;;;;;;7.80;3.10;;;15.50;99.10;;;;;;4884553;28;88036;-75
2023/08/29 01:38:17;;;;;;;9.63;3.38;;;15.50;99.40;;;;;;4883937;28;87427;-74
2023/08/29 01:40:43;;;;;;;10.88;4.88;;;15.40;99.40;;;;;;4885888;28;87544;-75
2023/08/29 01:43:09;;;;;;;7.38;3.85;;;15.40;99.10;;;;;;4886293;28;87638;-75
2023/08/29 01:45:35;;;;;;;3.47;2.95;;;15.30;99.20;;;;;;4869736;28;88078;-74
2023/08/29 01:48:04;;;;;;;5.20;3.95;;;15.30;99.20;;;;;;4881747;28;87989;-75
2023/08/29 01:50:32;;;;;;;6.32;2.70;;;15.20;99.20;;;;;;4882696;28;88730;-74
2023/08/29 01:53:01;;;;;;;7.50;3.42;;;15.20;99.30;;;;;;4883155;28;88890;-74
2023/08/29 01:55:31;;;;;;;3.83;2.97;;;15.20;99.30;;;;;;4885406;28;87804;-75
2023/08/29 01:58:01;;;;;;;8.02;3.85;;;15.10;99.30;;;;;;4884471;28;87729;-74
2023/08/29 02:00:42;;;;;;;;;;;;;;;;;;;;;
2023/08/29 02:03:09;;;;;;;11.00;3.67;;;15.00;99.30;;;;;;4882885;28;117124;-75
2023/08/29 02:05:35;;;;;;;3.78;2.78;;;14.90;99.40;;;;;;4867405;28;87558;-75
2023/08/29 02:08:00;;;;;;;3.92;3.10;;;14.90;99.50;;;;;;4885911;28;88398;-74
2023/08/29 02:10:26;;;;;;;4.28;3.28;;;14.80;99.50;;;;;;4884167;28;90105;-75
2023/08/29 02:12:52;;;;;;;4.28;3.10;;;14.70;99.60;;;;;;4884713;28;89766;-75
2023/08/29 02:15:17;;;;;;;6.85;4.00;;;14.70;99.60;;;;;;4882633;28;87657;-75
2023/08/29 02:17:43;;;;;;;4.18;3.00;;;14.60;99.80;;;;;;4880458;28;87986;-75
2023/08/29 02:20:13;;;;;;;5.57;3.35;;;14.60;99.90;;;;;;4861773;28;88995;-75
2023/08/29 02:22:42;;;;;;;4.75;4.13;;;14.60;99.90;;;;;;4881733;28;88456;-74
2023/08/29 02:25:08;;;;;;;5.72;3.80;;;14.60;99.90;;;;;;4884614;28;87702;-75
2023/08/29 02:27:33;;;;;;;7.30;4.10;;;14.50;99.90;;;;;;4873042;28;87513;-75
2023/08/29 02:30:04;;;;;;;4.90;4.00;;;14.50;99.90;;;;;;4884378;28;89367;-73
2023/08/29 02:32:31;;;;;;;8.77;5.00;;;14.50;99.90;;;;;;4867715;28;89193;-74
2023/08/29 02:34:57;;;;;;;8.15;5.43;;;14.50;99.90;;;;;;4882944;28;88502;-75
2023/08/29 02:37:22;;;;;;;6.30;5.15;;;14.40;99.90;;;;;;4881584;28;87532;-75
2023/08/29 02:39:48;;;;;;;8.68;4.47;;;14.40;99.90;;;;;;4882669;28;88616;-75
2023/08/29 02:42:14;;;;;;;6.72;5.43;;;14.40;99.90;;;;;;4881133;28;88656;-75
2023/08/29 02:44:40;;;;;;;6.90;5.40;;;14.30;99.90;;;;;;4865397;28;87468;-76
2023/08/29 02:47:08;;;;;;;11.15;6.22;;;14.30;99.90;;;;;;4882383;28;87871;-74
2023/08/29 02:49:33;;;;;;;12.73;6.80;;;14.40;99.90;;;;;;4882719;28;88741;-75
2023/08/29 02:52:02;;;;;;;8.52;6.07;;;14.40;99.90;;;;;;4887289;28;87401;-75
2023/08/29 02:54:28;;;;;;;9.85;6.45;;;14.40;99.90;;;;;;4885381;28;87697;-75
2023/08/29 02:56:53;;;;;;;9.43;6.25;;;14.40;99.90;;;;;;4865541;28;89436;-75
2023/08/29 02:59:20;;;;;;;11.82;6.72;;;14.40;99.90;;;;;;4880804;28;89238;-76
2023/08/29 03:01:48;;;;;;;9.48;6.32;;;14.40;99.90;;;;;;4879063;28;90113;-75
2023/08/29 03:04:13;;;;;;;10.57;6.95;;;14.40;99.90;;;;;;4880971;28;87604;-75
2023/08/29 03:06:39;;;;;;;8.82;6.50;;;14.40;99.90;;;;;;4862833;28;91589;-75
2023/08/29 03:09:07;;;;;;;11.55;6.97;;;14.40;99.90;;;;;;4880155;28;89218;-75
2023/08/29 03:11:32;;;;;;;10.15;7.30;;;14.40;99.90;;;;;;4881852;28;88157;-74
2023/08/29 03:13:58;;;;;;;10.25;7.03;;;14.40;99.90;;;;;;4862474;28;87623;-75
2023/08/29 03:16:24;;;;;;;9.02;6.70;;;14.40;99.90;;;;;;4880222;28;87513;-75
2023/08/29 03:18:50;;;;;;;8.07;5.93;;;14.40;99.90;;;;;;4883743;28;88549;-74
2023/08/29 03:21:21;;;;;;;9.65;6.80;;;14.40;99.90;;;;;;4881045;28;91244;-74
2023/08/29 03:23:47;;;;;;;10.88;6.57;;;14.40;99.90;;;;;;4879174;28;88786;-75
2023/08/29 03:26:13;;;;;;;14.68;6.63;;;14.40;99.90;;;;;;4882507;28;88189;-74
2023/08/29 03:28:38;;;;;;;8.60;6.10;;;14.40;99.90;;;;;;4882024;28;88646;-74
2023/08/29 03:31:15;;;;;;;7.97;6.10;;;14.50;99.90;;;;;;4882072;28;88035;-75
2023/08/29 03:33:45;;;;;;;9.57;5.65;;;14.40;99.90;;;;;;4880919;28;87374;-74
2023/08/29 03:36:11;;;;;;;6.95;5.75;;;14.50;99.90;;;;;;4881041;28;87147;-74
2023/08/29 03:38:41;;;;;;;6.00;4.68;;;14.50;99.90;;;;;;4862817;28;90453;-74
2023/08/29 03:41:08;;;;;;;6.20;3.75;;;14.40;99.90;;;;;;4862526;28;89732;-74
2023/08/29 03:43:35;;;;;;;7.13;6.30;;;14.40;99.90;;;;;;4864781;28;87926;-75
2023/08/29 03:46:02;;;;;;;8.18;5.95;;;14.50;99.90;;;;;;4881486;28;87505;-75
2023/08/29 03:48:31;;;;;;;11.27;7.50;;;14.50;99.90;;;;;;4881221;28;89856;-75
2023/08/29 03:51:06;;;;;;;13.10;9.20;;;14.40;99.90;;;;;;4883073;28;88337;-74
2023/08/29 03:53:36;;;;;;;13.98;9.43;;;14.40;99.90;;;;;;4882888;28;87528;-75
2023/08/29 03:56:08;;;;;;;16.25;9.07;;;14.30;99.90;;;;;;4880135;28;87411;-74
2023/08/29 03:58:35;;;;;;;11.25;9.52;;;14.30;99.90;;;;;;4861571;28;90691;-74
2023/08/29 04:01:03;;;;;;;11.73;9.65;;;14.30;99.90;;;;;;4883848;28;87979;-75
2023/08/29 04:03:32;;;;;;;16.42;9.50;;;14.20;99.90;;;;;;4873543;28;87783;-74
2023/08/29 04:06:06;;;;;;;13.00;9.00;;;14.20;99.90;;;;;;4864076;28;90456;-74
2023/08/29 04:08:32;;;;;;;14.38;9.57;;;14.20;99.90;;;;;;4862508;28;91772;-75
2023/08/29 04:10:58;;;;;;;16.63;10.25;;;14.10;99.90;;;;;;4862159;28;91669;-75
2023/08/29 04:13:24;;;;;;;11.23;9.00;;;14.10;99.90;;;;;;4879730;28;88393;-75
2023/08/29 04:15:49;;;;;;;12.40;9.27;;;14.10;99.90;;;;;;4866898;28;89963;-75
2023/08/29 04:18:16;;;;;;;11.50;9.27;;;14.10;99.90;;;;;;4862546;28;90783;-75
2023/08/29 04:20:47;;;;;;;9.38;7.60;;;14.10;99.90;;;;;;4885632;28;87918;-76
2023/08/29 04:23:15;;;;;;;14.73;10.07;;;14.00;99.90;;;;;;4884224;28;87997;-75
2023/08/29 04:25:41;;;;;;;19.05;11.20;;;14.00;99.90;;;;;;4874013;28;90178;-75
2023/08/29 04:28:19;;;;;;;15.43;11.45;;;14.00;99.90;;;;;;4865140;28;91148;-74
2023/08/29 04:30:45;;;;;;;17.30;10.73;;;14.00;99.90;;;;;;4880019;28;94341;-74
2023/08/29 04:33:11;;;;;;;15.93;12.23;;;14.00;99.90;;;;;;4883863;28;87608;-74
2023/08/29 04:35:36;;;;;;;20.23;12.80;;;13.90;99.90;;;;;;4883737;28;87415;-75
2023/08/29 04:38:02;;;;;;;16.38;12.27;;;13.90;99.90;;;;;;4883338;28;89292;-76
2023/08/29 04:40:28;;;;;;;19.83;13.73;;;13.90;99.90;;;;;;4885325;28;89951;-75
2023/08/29 04:42:54;;;;;;;19.92;14.32;;;13.90;99.90;;;;;;4866834;28;87694;-75
2023/08/29 04:45:20;;;;;;;19.13;14.05;;;13.90;99.90;;;;;;4885667;28;87797;-74
2023/08/29 04:47:48;;;;;;;19.70;13.93;;;13.80;99.90;;;;;;4883661;28;88626;-75
2023/08/29 04:50:14;;;;;;;18.40;14.10;;;13.80;99.90;;;;;;4884151;28;88737;-76
2023/08/29 04:52:40;;;;;;;21.05;13.93;;;13.80;99.90;;;;;;4863185;28;87712;-75
2023/08/29 04:55:06;;;;;;;21.92;13.73;;;13.80;99.90;;;;;;4887033;28;87604;-75
2023/08/29 04:57:33;;;;;;;20.30;13.18;;;13.80;99.90;;;;;;4884025;28;88674;-75
2023/08/29 05:00:00;;;;;;;18.25;11.98;;;13.70;99.90;;;;;;4866677;28;89397;-75
2023/08/29 05:02:27;;;;;;;19.50;13.15;;;13.80;99.90;;;;;;4884978;28;88272;-75
2023/08/29 05:05:02;;;;;;;19.00;12.38;;;13.80;99.90;;;;;;4881033;28;89637;-76
2023/08/29 05:07:27;;;;;;;17.75;13.57;;;13.70;99.90;;;;;;4886791;28;87310;-76
2023/08/29 05:10:02;;;;;;;22.63;13.48;;;13.80;99.90;;;;;;4883336;28;88929;-75
2023/08/29 05:12:28;;;;;;;21.17;15.13;;;13.80;99.90;;;;;;4884218;28;87482;-75
2023/08/29 05:14:54;;;;;;;23.10;14.23;;;13.80;99.90;;;;;;4868869;28;90180;-76
2023/08/29 05:17:28;;;;;;;25.83;15.95;;;13.80;99.90;;;;;;4882161;28;87399;-75
2023/08/29 05:19:54;;;;;;;19.85;15.27;;;13.80;99.90;;;;;;4882755;28;87669;-75
2023/08/29 05:22:20;;;;;;;17.85;13.73;;;13.80;99.90;;;;;;4881775;28;87616;-75
2023/08/29 05:24:46;;;;;;;21.60;13.18;;;13.70;99.90;;;;;;4882036;28;90544;-76
2023/08/29 05:27:14;;;;;;;24.85;17.38;;;13.70;99.90;;;;;;4883348;28;88343;-75
2023/08/29 05:29:43;;;;;;;26.85;17.30;;;13.80;99.90;;;;;;4881414;28;91152;-76
2023/08/29 05:32:09;;;;;;;24.92;17.77;;;13.70;99.90;;;;;;4884249;28;88019;-77
2023/08/29 05:34:35;;;;;;;33.08;19.20;;;13.70;99.90;;;;;;4882102;28;87866;-77
2023/08/29 05:37:02;;;;;;;29.85;18.67;;;13.70;99.90;;;;;;4882810;28;88722;-76
2023/08/29 05:39:28;;;;;;;31.38;20.42;;;13.70;99.90;;;;;;4864106;28;89491;-77
2023/08/29 05:41:54;;;;;;;26.35;17.42;;;13.70;99.90;;;;;;4856216;28;87788;-77
2023/08/29 05:44:23;;;;;;;31.08;20.33;;;13.80;99.90;;;;;;4876621;28;87191;-77
2023/08/29 05:46:48;;;;;;;32.75;22.77;;;13.70;99.90;;;;;;4880527;28;88349;-75
2023/08/29 05:49:15;;;;;;;31.40;21.52;;;13.80;99.90;;;;;;4882235;28;88506;-76
2023/08/29 05:51:40;;;;;;;33.10;20.77;;;13.80;99.90;;;;;;4880922;28;88566;-75
2023/08/29 05:54:06;;;;;;;26.77;19.67;;;13.80;99.90;;;;;;4880571;28;87603;-77
2023/08/29 05:56:32;;;;;;;29.65;19.95;;;13.80;99.90;;;;;;4882240;28;89038;-77
2023/08/29 05:58:57;;;;;;;31.20;20.58;;;13.90;99.90;;;;;;4881980;28;88512;-77
2023/08/29 06:01:23;;;;;;;30.90;19.25;;;13.90;99.90;;;;;;4863732;28;88078;-76
2023/08/29 06:03:49;;;;;;;31.83;20.20;;;13.90;99.90;;;;;;4876080;28;88177;-76
2023/08/29 06:06:15;;;;;;;31.65;21.20;;;14.00;99.90;;;;;;4868174;28;88191;-77
2023/08/29 06:08:40;;;;;;;35.45;20.52;;;14.10;99.90;;;;;;4865982;28;88944;-77
2023/08/29 06:11:06;;;;;;;29.42;21.45;;;14.10;99.90;;;;;;4865331;28;88115;-77
2023/08/29 06:13:32;;;;;;;32.92;21.52;;;14.20;99.90;;;;;;4862703;28;90679;-77
2023/08/29 06:15:58;;;;;;;31.23;21.98;;;14.20;99.90;;;;;;4874138;28;92016;-77
2023/08/29 06:18:24;;;;;;;32.15;22.33;;;14.30;99.90;;;;;;4873982;28;89380;-77
2023/08/29 06:20:49;;;;;;;28.80;20.42;;;14.30;99.90;;;;;;4854684;28;88278;-77
2023/08/29 06:23:15;;;;;;;31.45;20.50;;;14.40;99.90;;;;;;4865560;28;87563;-77
2023/08/29 06:25:41;;;;;;;31.90;20.75;;;14.40;99.90;;;;;;4864076;28;88584;-76
2023/08/29 06:28:07;;;;;;;32.78;21.83;;;14.50;99.90;;;;;;4865757;28;88651;-76
2023/08/29 06:30:34;;;;;;;27.60;19.17;;;14.50;99.90;;;;;;4870936;28;87755;-77
2023/08/29 06:33:00;;;;;;;34.30;22.42;;;14.50;99.90;;;;;;4876719;28;86975;-76
2023/08/29 06:35:25;;;;;;;31.73;21.08;;;14.50;99.90;;;;;;4876837;28;88868;-76
2023/08/29 06:37:53;;;;;;;32.53;21.77;;;14.50;99.90;;;;;;4874752;28;91510;-76
2023/08/29 06:40:19;;;;;;;30.33;19.95;;;14.60;99.90;;;;;;4875810;28;88722;-77
2023/08/29 06:42:44;;;;;;;29.33;19.83;;;14.60;99.90;;;;;;4878780;28;87368;-78
2023/08/29 06:45:10;;;;;;;30.70;21.75;;;14.70;99.90;;;;;;4860458;28;93029;-76
2023/08/29 06:47:36;;;;;;;33.35;21.60;;;14.70;99.90;;;;;;4878037;28;88580;-76
2023/08/29 06:50:01;;;;;;;30.15;22.63;;;14.80;99.90;;;;;;4878324;28;87554;-76
2023/08/29 06:52:28;;;;;;;35.33;22.60;;;14.80;99.90;;;;;;4878587;28;87511;-77
2023/08/29 06:54:54;;;;;;;33.55;24.08;;;14.80;99.90;;;;;;4879348;28;87651;-77
2023/08/29 06:57:20;;;;;;;34.20;23.50;;;14.80;99.90;;;;;;4879371;28;88188;-76
2023/08/29 06:59:45;;;;;;;33.92;24.13;;;14.80;99.90;;;;;;4878700;28;87597;-79
2023/08/29 07:02:11;;;;;;;36.38;25.17;;;14.90;99.90;;;;;;4877350;28;87788;-76
2023/08/29 07:04:37;;;;;;;35.92;24.67;;;14.90;99.90;;;;;;4877495;28;89931;-76
2023/08/29 07:07:03;;;;;;;31.58;23.77;;;15.00;99.90;;;;;;4879430;28;89055;-76
2023/08/29 07:09:30;;;;;;;43.97;26.70;;;15.10;99.90;;;;;;4877061;28;87470;-77
2023/08/29 07:11:56;;;;;;;40.33;26.95;;;15.10;99.90;;;;;;4877430;28;87798;-76
2023/08/29 07:14:22;;;;;;;37.22;24.10;;;15.20;99.90;;;;;;4877796;28;89180;-77
2023/08/29 07:16:48;;;;;;;37.17;26.83;;;15.10;99.90;;;;;;4878222;28;88756;-76
2023/08/29 07:19:13;;;;;;;45.03;27.58;;;15.20;99.90;;;;;;4878402;28;87685;-76
2023/08/29 07:21:40;;;;;;;51.15;30.77;;;15.20;99.90;;;;;;4879162;28;87369;-77
2023/08/29 07:24:06;;;;;;;48.65;30.98;;;15.30;99.90;;;;;;4877567;28;88751;-76
2023/08/29 07:26:31;;;;;;;40.90;29.02;;;15.40;99.90;;;;;;4879065;28;88323;-77
2023/08/29 07:28:57;;;;;;;44.28;31.58;;;15.40;99.90;;;;;;4878352;28;88504;-77
2023/08/29 07:31:23;;;;;;;48.80;33.08;;;15.50;99.90;;;;;;4865091;28;87312;-76
2023/08/29 07:33:49;;;;;;;46.97;32.00;;;15.60;99.90;;;;;;4867172;28;88746;-76
2023/08/29 07:36:15;;;;;;;45.58;32.20;;;15.60;99.90;;;;;;4863761;28;88859;-76
2023/08/29 07:38:41;;;;;;;45.15;29.48;;;15.70;99.90;;;;;;4865896;28;88870;-76
2023/08/29 07:41:07;;;;;;;41.60;30.92;;;15.90;99.90;;;;;;4865319;28;88099;-77
2023/08/29 07:43:33;;;;;;;47.30;31.13;;;15.90;99.90;;;;;;4864563;28;89571;-77
2023/08/29 07:45:58;;;;;;;44.78;28.50;;;16.00;99.90;;;;;;4866001;28;88485;-77
2023/08/29 07:48:24;;;;;;;41.65;28.13;;;16.10;99.90;;;;;;4864147;28;88060;-76
2023/08/29 07:50:50;;;;;;;41.90;30.02;;;16.20;99.90;;;;;;4851891;28;88953;-76
2023/08/29 07:53:16;;;;;;;35.92;27.52;;;16.20;99.90;;;;;;4863265;28;89578;-77
2023/08/29 07:55:42;;;;;;;37.83;25.98;;;16.30;99.90;;;;;;4861317;28;88943;-76
2023/08/29 07:58:08;;;;;;;39.67;27.00;;;16.30;99.90;;;;;;4865095;28;88202;-76
2023/08/29 08:00:34;;;;;;;38.67;27.60;;;16.40;99.90;;;;;;4864481;28;87808;-77
2023/08/29 08:03:00;;;;;;;38.67;25.77;;;16.40;99.90;;;;;;4863375;28;88486;-76
2023/08/29 08:05:26;;;;;;;36.05;23.58;;;16.50;99.90;;;;;;4864299;28;88913;-76
2023/08/29 08:07:52;;;;;;;29.95;22.50;;;16.60;99.90;;;;;;4874305;28;87877;-76
2023/08/29 08:10:19;;;;;;;30.27;21.75;;;16.70;99.90;;;;;;4874666;28;87390;-76
2023/08/29 08:12:47;;;;;;;28.85;20.13;;;16.90;99.90;;;;;;4875184;28;88365;-76
2023/08/29 08:15:12;;;;;;;30.40;22.70;;;17.00;99.90;;;;;;4876820;28;88542;-75
2023/08/29 08:17:38;;;;;;;30.33;20.83;;;17.10;99.90;;;;;;4877158;28;88684;-76
2023/08/29 08:20:07;;;;;;;31.17;21.05;;;17.20;99.90;;;;;;4877552;28;87749;-76
2023/08/29 08:22:42;;;;;;;24.33;18.52;;;17.30;99.90;;;;;;4877645;28;89489;-76
2023/08/29 08:25:12;;;;;;;24.27;18.10;;;17.30;99.80;;;;;;4875816;28;91288;-75
2023/08/29 08:27:40;;;;;;;24.73;17.17;;;17.40;99.30;;;;;;4859547;28;91508;-75
2023/08/29 08:30:07;;;;;;;29.67;18.15;;;17.50;99.50;;;;;;4858945;28;90177;-75
2023/08/29 08:32:33;;;;;;;23.42;17.73;;;17.70;99.40;;;;;;4876903;28;88233;-75
2023/08/29 08:34:59;;;;;;;22.58;16.52;;;17.80;99.30;;;;;;4877064;28;89090;-75
2023/08/29 08:37:25;;;;;;;34.72;16.92;;;17.90;98.40;;;;;;4877235;28;87531;-75
2023/08/29 08:39:51;;;;;;;21.63;16.13;;;18.00;98.50;;;;;;4878503;28;88291;-77
2023/08/29 08:42:18;;;;;;;22.38;15.20;;;18.10;98.20;;;;;;4873582;28;92233;-77
2023/08/29 08:44:44;;;;;;;18.75;13.23;;;18.20;98.40;;;;;;4877659;28;89148;-76
2023/08/29 08:47:12;;;;;;;19.10;14.30;;;18.30;98.10;;;;;;4876705;28;87780;-77
2023/08/29 08:49:38;;;;;;;16.10;12.23;;;18.40;97.10;;;;;;4877028;28;87616;-76
2023/08/29 08:52:05;;;;;;;16.83;11.13;;;18.40;97.30;;;;;;4877412;28;88481;-77
2023/08/29 08:54:30;;;;;;;12.57;9.68;;;18.50;96.90;;;;;;4876104;28;87936;-77
2023/08/29 08:56:58;;;;;;;12.57;9.68;;;18.50;96.90;;;;;;4877732;28;87496;-77
2023/08/29 08:59:24;;;;;;;12.02;8.55;;;18.60;96.70;;;;;;4877538;28;88187;-77
2023/08/29 09:01:50;;;;;;;13.13;8.63;;;18.60;96.10;;;;;;4878418;28;89367;-77
2023/08/29 09:04:17;;;;;;;11.00;8.57;;;18.60;96.10;;;;;;4878449;28;88325;-77
2023/08/29 09:06:42;;;;;;;11.20;7.35;;;18.60;96.80;;;;;;4880965;28;88749;-77
2023/08/29 09:09:17;;;;;;;10.48;7.95;;;18.70;97.00;;;;;;4881292;28;87712;-77
2023/08/29 09:11:43;;;;;;;11.35;6.72;;;18.80;95.90;;;;;;4880246;28;89267;-76
2023/08/29 09:14:09;;;;;;;9.75;7.60;;;18.80;96.40;;;;;;4863842;28;91427;-77
2023/08/29 09:16:35;;;;;;;9.77;6.78;;;18.90;96.30;;;;;;4881139;28;87588;-77
2023/08/29 09:19:01;;;;;;;12.88;7.32;;;19.00;96.30;;;;;;4881727;28;88000;-77
2023/08/29 09:21:27;;;;;;;11.38;7.90;;;19.10;96.20;;;;;;4880753;28;87719;-77
2023/08/29 09:23:53;;;;;;;12.82;8.75;;;19.20;95.20;;;;;;4881445;28;87983;-77
2023/08/29 09:26:18;;;;;;;13.65;7.82;;;19.20;94.80;;;;;;4882440;28;87680;-77
2023/08/29 09:28:44;;;;;;;10.25;7.95;;;19.20;95.00;;;;;;4881288;28;87612;-76
2023/08/29 09:31:15;;;;;;;13.25;8.57;;;19.30;95.10;;;;;;4884025;28;88527;-77
2023/08/29 09:33:41;;;;;;;11.10;7.57;;;19.30;94.80;;;;;;4882532;28;93401;-76
2023/08/29 09:36:07;;;;;;;12.15;8.15;;;19.30;94.90;;;;;;4881327;28;87607;-76
2023/08/29 09:38:34;;;;;;;10.20;8.00;;;19.30;94.50;;;;;;4880347;28;87190;-76
2023/08/29 09:41:00;;;;;;;11.27;7.30;;;19.30;95.20;;;;;;4880112;28;88474;-76
2023/08/29 09:43:29;;;;;;;10.27;7.60;;;19.40;94.70;;;;;;4882214;28;87592;-76
2023/08/29 09:45:56;;;;;;;9.77;7.65;;;19.50;95.10;;;;;;4883316;28;87338;-76
2023/08/29 09:48:22;;;;;;;9.93;7.13;;;19.50;94.50;;;;;;4881010;28;88008;-76
2023/08/29 09:50:49;;;;;;;9.25;7.32;;;19.60;95.40;;;;;;4882140;28;88248;-77
2023/08/29 09:53:18;;;;;;;10.52;7.80;;;19.80;95.10;;;;;;4882477;28;88070;-77
2023/08/29 09:55:52;;;;;;;8.95;6.85;;;19.90;94.30;;;;;;4881297;28;88746;-76
2023/08/29 09:58:22;;;;;;;27.98;7.80;;;20.00;93.20;;;;;;4880283;28;90411;-77
2023/08/29 10:00:50;;;;;;;8.63;7.07;;;20.10;94.00;;;;;;4878399;28;90568;-77
2023/08/29 10:03:17;;;;;;;11.85;7.35;;;20.20;93.70;;;;;;4883283;28;88321;-76
2023/08/29 10:05:44;;;;;;;11.55;6.57;;;20.20;93.60;;;;;;4862175;28;87856;-77
2023/08/29 10:08:35;;;;;;;11.45;6.68;;;20.20;93.50;;;;;;4879846;28;87745;-77
2023/08/29 10:11:01;;;;;;;8.43;6.53;;;20.30;93.10;;;;;;4878875;28;88849;-77
2023/08/29 10:13:28;;;;;;;10.20;6.60;;;20.40;92.10;;;;;;4880765;28;88420;-76
2023/08/29 10:15:54;;;;;;;10.77;6.30;;;20.40;91.90;;;;;;4881433;28;87741;-76
2023/08/29 10:18:24;;;;;;;9.70;6.50;;;20.30;92.30;;;;;;4861706;28;90530;-77
2023/08/29 10:20:52;;;;;;;12.15;7.32;;;20.40;91.90;;;;;;4877756;28;90689;-76
2023/08/29 10:23:18;;;;;;;8.95;5.85;;;20.30;91.90;;;;;;4875753;28;92152;-76
2023/08/29 10:25:45;;;;;;;8.93;5.65;;;20.20;91.80;;;;;;4879468;28;87675;-76
2023/08/29 10:28:12;;;;;;;9.10;6.00;;;20.20;92.60;;;;;;4875633;28;91328;-76
2023/08/29 10:30:44;;;;;;;10.35;5.68;;;20.30;92.50;;;;;;4879432;28;91273;-77
2023/08/29 10:33:12;;;;;;;6.85;4.80;;;20.30;91.60;;;;;;4879843;28;87052;-76
2023/08/29 10:35:38;;;;;;;5.75;4.50;;;20.30;91.40;;;;;;4862022;28;87511;-77
2023/08/29 10:38:10;;;;;;;8.23;5.65;;;20.40;91.80;;;;;;4879448;28;87372;-77
2023/08/29 10:40:36;;;;;;;10.10;5.82;;;20.50;91.20;;;;;;4877965;28;88709;-76
2023/08/29 10:43:03;;;;;;;9.50;5.88;;;20.60;91.50;;;;;;4879664;28;88893;-77
2023/08/29 10:46:12;;;;;;;7.55;5.45;;;20.70;91.00;;;;;;4878496;28;88470;-77
2023/08/29 10:48:46;;;;;;;7.60;5.78;;;20.70;90.50;;;;;;4872837;28;87577;-77
2023/08/29 10:51:12;;;;;;;10.45;5.70;;;20.80;90.90;;;;;;4860007;28;91237;-78
2023/08/29 10:53:45;;;;;;;8.27;5.47;;;20.90;90.20;;;;;;4879286;28;88043;-77
2023/08/29 10:56:12;;;;;;;6.97;5.10;;;21.00;90.50;;;;;;4878094;28;87448;-76
2023/08/29 10:58:40;;;;;;;6.85;4.95;;;21.10;90.30;;;;;;4879519;28;88111;-77
2023/08/29 11:01:07;;;;;;;10.05;4.50;;;21.10;90.40;;;;;;4880029;28;89005;-77
2023/08/29 11:03:40;;;;;;;5.57;4.32;;;21.10;88.80;;;;;;4861581;28;91587;-77
2023/08/29 11:06:06;;;;;;;9.07;5.10;;;21.10;89.50;;;;;;4861176;28;87578;-78
2023/08/29 11:08:32;;;;;;;9.02;5.10;;;21.10;88.00;;;;;;4879896;28;87391;-78
2023/08/29 11:11:22;;;;;;;5.15;3.25;;;21.00;87.70;;;;;;4859534;28;92488;-77
2023/08/29 11:14:06;;;;;;;5.15;2.58;;;21.00;89.80;;;;;;4862486;28;91346;-77
2023/08/29 11:16:35;;;;;;;;;;;21.10;89.00;;;;;;4862479;28;87836;-77
2023/08/29 11:19:12;;;;;;;4.30;3.00;;;21.10;88.40;;;;;;4862729;28;88372;-77
2023/08/29 11:21:39;;;;;;;3.85;2.65;;;21.10;90.30;;;;;;4879840;28;93783;-77
2023/08/29 11:24:10;;;;;;;8.38;3.55;;;21.20;89.60;;;;;;4862358;28;90165;-76
2023/08/29 11:26:39;;;;;;;5.43;3.10;;;21.30;89.70;;;;;;4876054;28;87535;-77
2023/08/29 11:29:05;;;;;;;5.93;3.88;;;21.30;89.40;;;;;;4877838;28;86746;-77
2023/08/29 11:31:42;;;;;;;8.07;4.20;;;21.40;88.10;;;;;;4877678;28;88366;-77
2023/08/29 11:34:20;;;;;;;6.65;2.90;;;21.40;88.20;;;;;;4861866;28;91366;-77
2023/08/29 11:36:50;;;;;;;6.43;3.60;;;21.40;88.70;;;;;;4880803;28;88521;-77
2023/08/29 11:39:19;;;;;;;5.22;2.58;;;21.50;87.50;;;;;;4875124;28;90317;-76
2023/08/29 11:41:45;;;;;;;9.65;3.95;;;21.50;87.30;;;;;;4873288;28;90193;-76
2023/08/29 11:44:11;;;;;;;11.18;4.90;;;21.50;86.90;;;;;;4877187;28;88060;-77
2023/08/29 11:46:37;;;;;;;8.93;4.07;;;21.50;85.90;;;;;;4879543;28;87481;-77
2023/08/29 11:49:13;;;;;;;10.57;4.07;;;21.40;86.50;;;;;;4878973;28;87674;-76
2023/08/29 11:51:39;;;;;;;4.78;3.60;;;21.40;86.70;;;;;;4878448;28;92876;-76
2023/08/29 11:54:25;;;;;;;4.25;3.10;;;21.40;86.90;;;;;;4877882;28;88322;-74
2023/08/29 11:56:51;;;;;;;5.90;3.60;;;21.40;87.20;;;;;;4858835;28;87529;-77
2023/08/29 11:59:16;;;;;;;6.70;3.30;;;21.50;87.30;;;;;;4878739;28;87775;-77
2023/08/29 12:01:42;;;;;;;4.93;3.50;;;21.50;87.10;;;;;;4877757;28;90465;-77
2023/08/29 12:04:08;;;;;;;5.95;4.32;;;21.70;85.70;;;;;;4880273;28;89603;-77
2023/08/29 12:06:34;;;;;;;5.63;4.40;;;21.70;84.80;;;;;;4878167;28;87516;-77
2023/08/29 12:08:59;;;;;;;6.43;4.75;;;21.60;83.20;;;;;;4859626;28;91196;-76
2023/08/29 12:11:41;;;;;;;5.50;3.10;;;21.60;83.00;;;;;;4877984;28;89380;-76
2023/08/29 12:14:07;;;;;;;8.18;4.28;;;21.80;85.10;;;;;;4877674;28;88189;-77
2023/08/29 12:16:33;;;;;;;7.10;4.32;;;22.00;83.60;;;;;;4858329;28;87669;-77
2023/08/29 12:19:12;;;;;;;7.22;4.88;;;22.00;84.30;;;;;;4878831;28;87029;-77
2023/08/29 12:21:37;;;;;;;5.03;4.00;;;22.10;83.90;;;;;;4879732;28;93647;-77
2023/08/29 12:24:11;;;;;;;5.10;3.65;;;22.20;83.60;;;;;;4878985;28;88874;-77
2023/08/29 12:26:36;;;;;;;;;;;22.40;85.20;;;;;;4879889;28;88424;-77
2023/08/29 12:29:02;;;;;;;9.75;5.40;;;22.60;82.70;;;;;;4861704;28;90569;-77
2023/08/29 12:31:28;;;;;;;5.93;5.32;;;22.70;80.90;;;;;;4877976;28;88821;-77
2023/08/29 12:33:54;;;;;;;8.98;5.95;;;22.80;80.30;;;;;;4878835;28;88501;-76
2023/08/29 12:36:19;;;;;;;6.95;4.28;;;22.70;80.50;;;;;;4879029;28;87595;-76
2023/08/29 12:38:45;;;;;;;7.68;5.05;;;22.50;76.50;;;;;;4877790;28;88150;-77
2023/08/29 12:41:12;;;;;;;6.43;4.97;;;22.40;79.20;;;;;;4880075;28;89655;-77
2023/08/29 12:43:40;;;;;;;7.03;4.80;;;22.40;79.00;;;;;;4861951;28;91409;-77
2023/08/29 12:46:06;;;;;;;9.15;6.07;;;22.50;81.80;;;;;;4878850;28;87502;-77